createdAt,value
2023-06-19T00:00:25.163Z,21.56
2023-06-19T00:02:51.853Z,21.52
2023-06-19T00:05:18.359Z,21.49
2023-06-19T00:07:44.778Z,21.53
2023-06-19T00:10:11.152Z,21.58
2023-06-19T00:12:37.536Z,21.56
2023-06-19T00:15:04.171Z,21.52
2023-06-19T00:17:30.606Z,21.31
2023-06-19T00:19:57.018Z,21.37
2023-06-19T00:22:23.382Z,21.46
2023-06-19T00:24:49.772Z,21.42
2023-06-19T00:27:16.155Z,21.45
2023-06-19T00:29:42.547Z,21.51
2023-06-19T00:32:09.043Z,21.48
2023-06-19T00:34:35.421Z,21.39
2023-06-19T00:37:01.788Z,21.32
2023-06-19T00:39:28.137Z,21.07
2023-06-19T00:41:57.684Z,21.12
2023-06-19T00:44:24.138Z,21.14
2023-06-19T00:47:00.917Z,21.03
2023-06-19T00:49:29.531Z,21.09
2023-06-19T00:51:56.139Z,21.06
2023-06-19T00:54:22.620Z,21.03
2023-06-19T00:56:49.242Z,21.04
2023-06-19T00:59:20.338Z,20.98
2023-06-19T01:01:47.431Z,20.98
2023-06-19T01:04:14.643Z,21.05
2023-06-19T01:06:51.814Z,21.04
2023-06-19T01:09:19.640Z,21.04
2023-06-19T01:11:53.290Z,21.19
2023-06-19T01:14:26.476Z,21.08
2023-06-19T01:16:53.117Z,21.36
2023-06-19T01:19:21.167Z,21.19
2023-06-19T01:21:48.446Z,21.25
2023-06-19T01:24:15.195Z,21.16
2023-06-19T01:26:42.555Z,21.15
2023-06-19T01:29:09.421Z,21.22
2023-06-19T01:31:50.047Z,21.13
2023-06-19T01:34:18.335Z,21.26
2023-06-19T01:36:45.349Z,21.14
2023-06-19T01:39:13.113Z,21.10
2023-06-19T01:41:41.026Z,21.15
2023-06-19T01:44:08.892Z,21.13
2023-06-19T01:46:35.490Z,21.08
2023-06-19T01:49:01.977Z,21.04
2023-06-19T01:51:28.370Z,21.00
2023-06-19T01:53:54.744Z,20.89
2023-06-19T01:56:21.158Z,20.93
2023-06-19T01:58:47.513Z,20.96
2023-06-19T02:01:14.753Z,20.99
2023-06-19T02:03:41.274Z,21.02
2023-06-19T02:06:07.706Z,21.04
2023-06-19T02:08:34.051Z,21.06
2023-06-19T02:11:00.484Z,20.92
2023-06-19T02:13:26.850Z,20.95
2023-06-19T02:15:53.229Z,20.95
2023-06-19T02:18:19.656Z,20.89
2023-06-19T02:20:46.007Z,20.80
2023-06-19T02:23:12.377Z,20.84
2023-06-19T02:25:38.755Z,20.79
2023-06-19T02:28:05.144Z,20.80
2023-06-19T02:30:31.523Z,20.74
2023-06-19T02:32:57.994Z,20.79
2023-06-19T02:35:24.390Z,20.82
2023-06-19T02:37:50.754Z,20.76
2023-06-19T02:40:17.132Z,20.79
2023-06-19T02:42:43.517Z,20.77
2023-06-19T02:45:10.291Z,20.76
2023-06-19T02:47:37.054Z,20.73
2023-06-19T02:50:04.413Z,20.70
2023-06-19T02:52:31.366Z,20.70
2023-06-19T02:54:57.799Z,20.70
2023-06-19T02:57:24.178Z,20.72
2023-06-19T02:59:50.549Z,20.66
2023-06-19T03:02:17.085Z,20.66
2023-06-19T03:04:44.236Z,20.61
2023-06-19T03:07:10.645Z,20.62
2023-06-19T03:09:37.417Z,20.63
2023-06-19T03:12:04.093Z,20.65
2023-06-19T03:14:30.425Z,20.62
2023-06-19T03:16:56.827Z,20.75
2023-06-19T03:19:23.386Z,20.87
2023-06-19T03:21:49.756Z,20.84
2023-06-19T03:24:16.188Z,20.80
2023-06-19T03:26:42.612Z,20.79
2023-06-19T03:29:08.966Z,20.73
2023-06-19T03:31:35.320Z,20.67
2023-06-19T03:34:01.655Z,20.64
2023-06-19T03:36:28.016Z,20.49
2023-06-19T03:38:54.396Z,20.48
2023-06-19T03:41:20.824Z,20.48
2023-06-19T03:43:47.223Z,20.47
2023-06-19T03:46:13.650Z,20.43
2023-06-19T03:48:40.008Z,20.40
2023-06-19T03:51:06.352Z,20.42
2023-06-19T03:53:32.762Z,20.42
2023-06-19T03:55:59.116Z,20.36
2023-06-19T03:58:25.485Z,20.38
2023-06-19T04:00:52.445Z,20.39
2023-06-19T04:03:19.075Z,20.44
2023-06-19T04:05:45.499Z,20.47
2023-06-19T04:08:11.838Z,20.37
2023-06-19T04:10:38.205Z,20.42
2023-06-19T04:13:04.698Z,20.51
2023-06-19T04:15:31.052Z,20.52
2023-06-19T04:17:57.494Z,20.57
2023-06-19T04:20:24.133Z,20.66
2023-06-19T04:22:50.697Z,20.73
2023-06-19T04:25:17.094Z,20.86
2023-06-19T04:27:43.453Z,20.94
2023-06-19T04:30:10.193Z,21.08
2023-06-19T04:32:36.760Z,21.25
2023-06-19T04:35:03.513Z,21.46
2023-06-19T04:37:29.999Z,21.50
2023-06-19T04:39:56.357Z,21.56
2023-06-19T04:42:22.748Z,21.60
2023-06-19T04:44:49.326Z,21.55
2023-06-19T04:47:19.030Z,21.41
2023-06-19T04:49:45.509Z,21.23
2023-06-19T04:52:11.904Z,21.31
2023-06-19T04:54:38.483Z,21.35
2023-06-19T04:57:05.356Z,21.43
2023-06-19T04:59:31.863Z,21.38
2023-06-19T05:01:58.547Z,21.45
2023-06-19T05:04:25.307Z,21.42
2023-06-19T05:06:51.831Z,21.51
2023-06-19T05:09:18.313Z,21.73
2023-06-19T05:11:44.877Z,21.88
2023-06-19T05:14:11.219Z,21.95
2023-06-19T05:16:37.696Z,21.87
2023-06-19T05:19:04.319Z,21.89
2023-06-19T05:21:30.722Z,21.87
2023-06-19T05:23:57.150Z,21.88
2023-06-19T05:26:23.908Z,21.80
2023-06-19T05:28:50.746Z,21.70
2023-06-19T05:31:17.098Z,21.65
2023-06-19T05:33:43.465Z,21.76
2023-06-19T05:36:09.830Z,22.01
2023-06-19T05:38:36.259Z,22.25
2023-06-19T05:41:03.339Z,22.54
2023-06-19T05:43:29.816Z,22.98
2023-06-19T05:45:56.308Z,23.20
2023-06-19T05:48:22.868Z,23.33
2023-06-19T05:50:49.233Z,23.44
2023-06-19T05:53:15.962Z,23.36
2023-06-19T05:55:42.421Z,23.11
2023-06-19T05:58:09.374Z,23.01
2023-06-19T06:00:35.741Z,23.16
2023-06-19T06:03:02.150Z,23.38
2023-06-19T06:05:29.018Z,23.45
2023-06-19T06:07:56.277Z,23.63
2023-06-19T06:10:24.482Z,23.73
2023-06-19T06:12:51.008Z,23.95
2023-06-19T06:15:17.966Z,23.82
2023-06-19T06:17:44.678Z,23.95
2023-06-19T06:20:11.305Z,23.91
2023-06-19T06:22:37.772Z,23.53
2023-06-19T06:25:04.307Z,23.55
2023-06-19T06:27:30.855Z,23.55
2023-06-19T06:29:57.198Z,23.68
2023-06-19T06:32:23.583Z,23.80
2023-06-19T06:34:49.920Z,24.00
2023-06-19T06:37:16.301Z,24.07
2023-06-19T06:39:42.774Z,24.22
2023-06-19T06:42:09.210Z,24.11
2023-06-19T06:44:36.253Z,24.25
2023-06-19T06:47:02.710Z,24.37
2023-06-19T06:49:29.073Z,24.54
2023-06-19T06:51:57.652Z,24.39
2023-06-19T06:54:24.568Z,24.26
2023-06-19T06:56:50.939Z,24.33
2023-06-19T06:59:17.316Z,24.57
2023-06-19T07:01:43.661Z,24.79
2023-06-19T07:04:09.991Z,24.64
2023-06-19T07:06:36.351Z,24.71
2023-06-19T07:09:02.713Z,24.82
2023-06-19T07:11:29.057Z,24.78
2023-06-19T07:13:55.413Z,24.66
2023-06-19T07:16:21.776Z,24.71
2023-06-19T07:18:48.157Z,24.83
2023-06-19T07:21:15.757Z,24.83
2023-06-19T07:23:43.535Z,24.98
2023-06-19T07:26:10.523Z,24.74
2023-06-19T07:28:36.867Z,24.81
2023-06-19T07:31:04.087Z,24.85
2023-06-19T07:33:30.477Z,25.14
2023-06-19T07:35:57.520Z,25.21
2023-06-19T07:38:24.509Z,25.23
2023-06-19T07:40:50.880Z,25.32
2023-06-19T07:43:17.515Z,25.32
2023-06-19T07:45:44.096Z,25.48
2023-06-19T07:48:10.585Z,25.35
2023-06-19T07:50:37.053Z,25.50
2023-06-19T07:53:03.417Z,25.32
2023-06-19T07:55:29.782Z,25.39
2023-06-19T07:57:56.150Z,25.58
2023-06-19T08:00:22.761Z,25.46
2023-06-19T08:02:49.433Z,25.19
2023-06-19T08:05:15.975Z,25.38
2023-06-19T08:07:42.403Z,25.52
2023-06-19T08:10:13.988Z,25.75
2023-06-19T08:12:43.308Z,26.02
2023-06-19T08:15:10.420Z,25.77
2023-06-19T08:17:36.801Z,26.12
2023-06-19T08:20:03.628Z,26.33
2023-06-19T08:22:29.982Z,26.68
2023-06-19T08:24:56.328Z,26.81
2023-06-19T08:27:22.759Z,26.58
2023-06-19T08:29:49.129Z,26.35
2023-06-19T08:32:15.516Z,25.88
2023-06-19T08:34:41.861Z,26.02
2023-06-19T08:37:08.472Z,25.68
2023-06-19T08:39:35.308Z,25.86
2023-06-19T08:42:01.667Z,26.52
2023-06-19T08:44:28.091Z,26.85
2023-06-19T08:46:54.500Z,26.88
2023-06-19T08:49:20.949Z,26.83
2023-06-19T08:51:47.321Z,26.71
2023-06-19T08:54:13.683Z,26.36
2023-06-19T08:56:40.072Z,26.20
2023-06-19T08:59:13.691Z,26.27
2023-06-19T09:01:40.449Z,26.39
2023-06-19T09:04:14.603Z,26.34
2023-06-19T09:06:51.717Z,26.04
2023-06-19T09:09:19.850Z,25.99
2023-06-19T09:11:57.887Z,25.42
2023-06-19T09:14:41.305Z,25.14
2023-06-19T09:17:12.306Z,25.28
2023-06-19T09:19:39.406Z,25.29
2023-06-19T09:22:08.894Z,25.23
2023-06-19T09:24:42.425Z,25.30
2023-06-19T09:27:17.169Z,25.66
2023-06-19T09:29:45.236Z,25.93
2023-06-19T09:32:22.739Z,26.10
2023-06-19T09:34:51.125Z,26.42
2023-06-19T09:37:23.375Z,26.14
2023-06-19T09:39:54.860Z,26.27
2023-06-19T09:42:28.508Z,26.30
2023-06-19T09:45:01.256Z,25.86
2023-06-19T09:47:32.093Z,26.42
2023-06-19T09:49:59.857Z,26.76
2023-06-19T09:52:26.306Z,26.57
2023-06-19T09:54:54.551Z,26.48
2023-06-19T09:57:21.660Z,26.32
2023-06-19T09:59:56.538Z,26.15
2023-06-19T10:02:23.828Z,26.18
2023-06-19T10:04:55.100Z,26.14
2023-06-19T10:07:26.795Z,26.08
2023-06-19T10:09:58.062Z,26.23
2023-06-19T10:14:52.165Z,25.90
2023-06-19T10:17:18.544Z,26.05
2023-06-19T10:19:51.932Z,26.04
2023-06-19T10:22:21.699Z,26.27
2023-06-19T10:24:51.620Z,26.26
2023-06-19T10:27:26.136Z,26.28
2023-06-19T10:30:16.000Z,25.98
2023-06-19T10:32:42.299Z,26.07
2023-06-19T10:35:12.835Z,26.02
2023-06-19T10:37:39.310Z,25.85
2023-06-19T10:40:06.475Z,25.63
2023-06-19T10:42:32.829Z,25.53
2023-06-19T10:45:07.334Z,26.06
2023-06-19T10:47:34.302Z,26.65
2023-06-19T10:50:00.883Z,27.18
2023-06-19T10:52:30.061Z,26.87
2023-06-19T10:54:57.348Z,26.72
2023-06-19T10:57:30.968Z,26.81
2023-06-19T10:59:58.323Z,26.92
2023-06-19T11:02:25.245Z,26.97
2023-06-19T11:04:55.951Z,26.74
2023-06-19T11:07:25.389Z,26.50
2023-06-19T11:09:51.735Z,26.71
2023-06-19T11:12:21.842Z,26.14
2023-06-19T11:14:51.831Z,26.70
2023-06-19T11:17:18.603Z,26.92
2023-06-19T11:19:45.113Z,27.39
2023-06-19T11:22:12.213Z,27.34
2023-06-19T11:24:44.594Z,27.12
2023-06-19T11:27:18.676Z,27.19
2023-06-19T11:29:45.400Z,27.75
2023-06-19T11:32:15.962Z,27.37
2023-06-19T11:34:42.563Z,27.33
2023-06-19T11:37:16.640Z,27.29
2023-06-19T11:39:47.041Z,27.48
2023-06-19T11:42:13.422Z,27.84
2023-06-19T11:45:02.340Z,27.75
2023-06-19T11:47:31.393Z,27.39
2023-06-19T11:49:57.815Z,27.80
2023-06-19T11:52:24.252Z,28.25
2023-06-19T11:54:50.811Z,28.77
2023-06-19T11:57:17.177Z,28.74
2023-06-19T11:59:43.719Z,28.87
2023-06-19T12:02:10.656Z,28.63
2023-06-19T12:04:37.387Z,28.83
2023-06-19T12:07:04.043Z,28.80
2023-06-19T12:09:30.860Z,28.29
2023-06-19T12:11:57.208Z,28.48
2023-06-19T12:14:23.551Z,28.20
2023-06-19T12:16:49.943Z,28.28
2023-06-19T12:19:20.608Z,28.54
2023-06-19T12:21:47.455Z,28.60
2023-06-19T12:24:13.983Z,27.90
2023-06-19T12:26:40.454Z,27.87
2023-06-19T12:29:08.063Z,27.83
2023-06-19T12:31:35.559Z,27.84
2023-06-19T12:34:07.921Z,27.87
2023-06-19T12:36:40.322Z,27.90
2023-06-19T12:39:06.710Z,27.81
2023-06-19T12:41:33.049Z,27.78
2023-06-19T12:43:59.420Z,27.82
2023-06-19T12:46:25.818Z,28.07
2023-06-19T12:48:52.223Z,27.81
2023-06-19T12:51:18.980Z,27.92
2023-06-19T12:53:45.556Z,27.82
2023-06-19T12:56:14.101Z,28.07
2023-06-19T12:58:40.807Z,27.93
2023-06-19T13:01:07.285Z,27.75
2023-06-19T13:03:33.760Z,27.97
2023-06-19T13:06:00.219Z,28.53
2023-06-19T13:08:26.611Z,28.66
2023-06-19T13:10:52.992Z,28.73
2023-06-19T13:13:19.366Z,28.90
2023-06-19T13:15:46.897Z,28.89
2023-06-19T13:18:13.474Z,27.58
2023-06-19T13:20:39.896Z,27.66
2023-06-19T13:23:06.231Z,28.19
2023-06-19T13:25:32.608Z,28.74
2023-06-19T13:27:59.014Z,28.51
2023-06-19T13:30:25.560Z,28.35
2023-06-19T13:32:52.071Z,28.64
2023-06-19T13:35:18.539Z,28.91
2023-06-19T13:37:44.915Z,28.64
2023-06-19T13:40:11.428Z,28.50
2023-06-19T13:42:37.798Z,28.60
2023-06-19T13:45:04.492Z,28.71
2023-06-19T13:47:31.097Z,28.74
2023-06-19T13:49:57.709Z,28.72
2023-06-19T13:52:24.117Z,28.90
2023-06-19T13:54:50.812Z,28.64
2023-06-19T13:57:18.250Z,28.71
2023-06-19T13:59:44.605Z,27.88
2023-06-19T14:02:11.039Z,27.64
2023-06-19T14:04:37.423Z,27.88
2023-06-19T14:07:03.982Z,28.39
2023-06-19T14:09:30.347Z,28.80
2023-06-19T14:11:56.723Z,28.82
2023-06-19T14:14:23.129Z,28.97
2023-06-19T14:16:49.616Z,29.12
2023-06-19T14:19:16.118Z,28.87
2023-06-19T14:21:42.483Z,28.78
2023-06-19T14:24:08.881Z,27.75
2023-06-19T14:26:35.266Z,27.69
2023-06-19T14:29:01.603Z,27.84
2023-06-19T14:31:27.958Z,27.99
2023-06-19T14:33:54.826Z,27.80
2023-06-19T14:36:21.200Z,27.83
2023-06-19T14:38:47.534Z,27.27
2023-06-19T14:41:13.897Z,27.75
2023-06-19T14:43:40.277Z,28.10
2023-06-19T14:46:06.657Z,28.37
2023-06-19T14:48:33.000Z,28.68
2023-06-19T14:50:59.570Z,28.26
2023-06-19T14:53:25.957Z,27.70
2023-06-19T14:55:52.309Z,27.53
2023-06-19T14:58:18.674Z,27.57
2023-06-19T15:00:45.326Z,27.72
2023-06-19T15:03:11.738Z,28.04
2023-06-19T15:05:38.143Z,28.04
2023-06-19T15:08:04.536Z,27.92
2023-06-19T15:10:30.962Z,27.81
2023-06-19T15:12:57.292Z,27.96
2023-06-19T15:15:23.681Z,28.06
2023-06-19T15:17:50.069Z,27.65
2023-06-19T15:20:16.482Z,27.53
2023-06-19T15:22:43.156Z,27.86
2023-06-19T15:25:09.747Z,28.25
2023-06-19T15:27:36.180Z,28.75
2023-06-19T15:30:02.617Z,28.73
2023-06-19T15:32:28.988Z,28.25
2023-06-19T15:34:55.367Z,28.29
2023-06-19T15:37:21.735Z,28.22
2023-06-19T15:39:48.189Z,28.21
2023-06-19T15:42:14.620Z,28.08
2023-06-19T15:44:40.976Z,27.86
2023-06-19T15:47:07.595Z,27.97
2023-06-19T15:49:33.991Z,28.27
2023-06-19T15:52:00.351Z,28.11
2023-06-19T15:54:26.694Z,28.08
2023-06-19T15:56:53.038Z,28.16
2023-06-19T15:59:19.398Z,27.84
2023-06-19T16:01:45.775Z,27.57
2023-06-19T16:04:12.522Z,27.39
2023-06-19T16:06:38.919Z,27.52
2023-06-19T16:09:05.268Z,27.72
2023-06-19T16:11:31.620Z,28.18
2023-06-19T16:13:57.998Z,28.36
2023-06-19T16:16:24.392Z,28.42
2023-06-19T16:18:50.793Z,28.34
2023-06-19T16:21:17.323Z,28.33
2023-06-19T16:23:43.692Z,28.10
2023-06-19T16:26:10.056Z,28.14
2023-06-19T16:28:36.428Z,28.25
2023-06-19T16:31:02.879Z,28.16
2023-06-19T16:33:29.287Z,27.98
2023-06-19T16:35:58.300Z,27.96
2023-06-19T16:38:24.669Z,27.61
2023-06-19T16:40:51.002Z,27.41
2023-06-19T16:43:17.356Z,27.30
2023-06-19T16:45:43.721Z,26.80
2023-06-19T16:48:10.218Z,26.77
2023-06-19T16:50:36.590Z,26.89
2023-06-19T16:53:02.970Z,27.22
2023-06-19T16:55:29.938Z,27.41
2023-06-19T16:57:56.306Z,27.64
2023-06-19T17:00:23.130Z,27.76
2023-06-19T17:02:49.865Z,27.65
2023-06-19T17:05:16.410Z,27.72
2023-06-19T17:07:42.772Z,27.67
2023-06-19T17:10:10.015Z,27.38
2023-06-19T17:12:36.391Z,27.14
2023-06-19T17:15:02.763Z,27.07
2023-06-19T17:17:29.200Z,26.86
2023-06-19T17:19:55.639Z,27.37
2023-06-19T17:22:22.001Z,27.26
2023-06-19T17:24:48.464Z,26.69
2023-06-19T17:27:14.963Z,26.51
2023-06-19T17:29:41.318Z,26.56
2023-06-19T17:32:07.918Z,26.37
2023-06-19T17:34:34.276Z,26.56
2023-06-19T17:37:00.648Z,26.87
2023-06-19T17:39:28.869Z,27.03
2023-06-19T17:41:55.304Z,27.31
2023-06-19T17:44:21.676Z,27.23
2023-06-19T17:46:48.123Z,27.49
2023-06-19T17:49:14.601Z,27.49
2023-06-19T17:51:40.942Z,27.21
2023-06-19T17:54:07.282Z,26.72
2023-06-19T17:56:33.656Z,26.29
2023-06-19T17:59:00.071Z,26.24
2023-06-19T18:01:26.483Z,26.00
2023-06-19T18:03:53.308Z,26.01
2023-06-19T18:06:20.334Z,26.06
2023-06-19T18:08:46.781Z,25.89
2023-06-19T18:11:13.299Z,25.91
2023-06-19T18:13:39.656Z,25.98
2023-06-19T18:16:11.227Z,25.98
2023-06-19T18:18:39.601Z,26.14
2023-06-19T18:21:05.961Z,26.09
2023-06-19T18:23:32.313Z,25.98
2023-06-19T18:25:58.709Z,25.71
2023-06-19T18:28:25.073Z,25.80
2023-06-19T18:30:51.430Z,25.90
2023-06-19T18:33:17.796Z,25.85
2023-06-19T18:35:44.159Z,25.68
2023-06-19T18:38:10.502Z,25.58
2023-06-19T18:40:36.898Z,25.46
2023-06-19T18:43:03.293Z,25.39
2023-06-19T18:45:29.640Z,25.35
2023-06-19T18:47:56.007Z,25.17
2023-06-19T18:50:22.445Z,25.06
2023-06-19T18:52:48.909Z,24.89
2023-06-19T18:55:15.360Z,24.81
2023-06-19T18:57:41.734Z,24.71
2023-06-19T19:00:08.456Z,24.55
2023-06-19T19:02:34.880Z,24.36
2023-06-19T19:05:01.258Z,24.23
2023-06-19T19:07:27.610Z,24.21
2023-06-19T19:09:53.955Z,24.23
2023-06-19T19:12:20.310Z,24.16
2023-06-19T19:14:46.659Z,24.09
2023-06-19T19:17:12.996Z,24.05
2023-06-19T19:19:39.349Z,23.99
2023-06-19T19:22:06.124Z,23.81
2023-06-19T19:24:32.516Z,23.62
2023-06-19T19:26:58.948Z,23.49
2023-06-19T19:29:25.317Z,23.38
2023-06-19T19:31:51.697Z,23.23
2023-06-19T19:34:19.934Z,23.05
2023-06-19T19:36:47.582Z,22.90
2023-06-19T19:39:14.382Z,22.79
2023-06-19T19:41:40.760Z,22.66
2023-06-19T19:44:07.098Z,22.45
2023-06-19T19:46:33.686Z,22.25
2023-06-19T19:49:00.117Z,22.08
2023-06-19T19:51:26.948Z,21.92
2023-06-19T19:53:53.293Z,21.87
2023-06-19T19:56:19.685Z,21.78
2023-06-19T19:58:46.092Z,21.64
2023-06-19T20:01:12.513Z,21.51
2023-06-19T20:03:38.998Z,21.47
2023-06-19T20:06:05.519Z,21.41
2023-06-19T20:08:31.885Z,21.51
2023-06-19T20:10:58.257Z,21.50
2023-06-19T20:13:24.724Z,21.56
2023-06-19T20:15:51.105Z,21.46
2023-06-19T20:18:17.520Z,21.34
2023-06-19T20:20:44.047Z,21.21
2023-06-19T20:23:10.413Z,21.18
2023-06-19T20:25:36.769Z,21.15
2023-06-19T20:28:08.676Z,21.16
2023-06-19T20:30:35.488Z,21.21
2023-06-19T20:33:01.866Z,21.45
2023-06-19T20:35:28.232Z,21.51
2023-06-19T20:37:54.609Z,21.27
2023-06-19T20:40:21.129Z,21.16
2023-06-19T20:42:47.507Z,21.08
2023-06-19T20:45:13.864Z,20.95
2023-06-19T20:47:40.257Z,20.90
2023-06-19T20:50:07.536Z,20.81
2023-06-19T20:52:33.940Z,20.71
2023-06-19T20:55:00.323Z,20.60
2023-06-19T20:57:26.674Z,20.53
2023-06-19T20:59:53.028Z,20.45
2023-06-19T21:02:19.461Z,20.41
2023-06-19T21:04:45.909Z,20.39
2023-06-19T21:07:12.264Z,20.42
2023-06-19T21:09:38.629Z,20.35
2023-06-19T21:12:05.404Z,20.28
2023-06-19T21:14:31.787Z,20.30
2023-06-19T21:16:58.252Z,20.26
2023-06-19T21:19:24.866Z,20.27
2023-06-19T21:21:51.213Z,20.23
2023-06-19T21:24:17.599Z,20.28
2023-06-19T21:26:44.029Z,20.30
2023-06-19T21:29:10.393Z,20.24
2023-06-19T21:31:36.752Z,20.15
2023-06-19T21:34:03.088Z,20.11
2023-06-19T21:36:29.471Z,20.02
2023-06-19T21:38:55.806Z,19.96
2023-06-19T21:41:22.211Z,19.82
2023-06-19T21:43:48.579Z,19.83
2023-06-19T21:46:15.051Z,19.76
2023-06-19T21:48:41.424Z,19.65
2023-06-19T21:51:07.820Z,19.52
2023-06-19T21:53:34.248Z,19.42
2023-06-19T21:56:00.607Z,19.32
2023-06-19T21:58:26.965Z,19.24
2023-06-19T22:00:53.326Z,18.99
2023-06-19T22:03:19.824Z,18.85
2023-06-19T22:05:46.315Z,18.79
2023-06-19T22:08:12.704Z,18.89
2023-06-19T22:10:39.067Z,18.89
2023-06-19T22:13:05.569Z,19.02
2023-06-19T22:15:31.916Z,18.94
2023-06-19T22:17:58.282Z,18.92
2023-06-19T22:20:24.862Z,18.85
2023-06-19T22:22:51.451Z,18.78
2023-06-19T22:25:17.876Z,18.79
2023-06-19T22:27:44.876Z,18.78
2023-06-19T22:30:15.862Z,18.70
2023-06-19T22:32:43.019Z,18.70
2023-06-19T22:35:09.483Z,18.70
2023-06-19T22:37:36.563Z,18.91
2023-06-19T22:40:03.453Z,18.85
2023-06-19T22:42:29.810Z,18.83
2023-06-19T22:44:56.187Z,18.87
2023-06-19T22:47:22.628Z,18.95
2023-06-19T22:49:49.122Z,18.90
2023-06-19T22:52:15.512Z,18.90
2023-06-19T22:54:41.866Z,18.84
2023-06-19T22:57:08.228Z,18.80
2023-06-19T22:59:34.584Z,18.78
2023-06-19T23:02:00.944Z,18.87
2023-06-19T23:04:27.288Z,18.79
2023-06-19T23:06:53.661Z,18.72
2023-06-19T23:09:20.005Z,18.56
2023-06-19T23:11:46.356Z,18.55
2023-06-19T23:14:12.701Z,18.59
2023-06-19T23:16:39.067Z,18.64
2023-06-19T23:19:05.411Z,18.76
2023-06-19T23:21:31.836Z,19.10
2023-06-19T23:23:59.307Z,19.45
2023-06-19T23:26:26.008Z,19.53
2023-06-19T23:28:53.357Z,19.66
2023-06-19T23:31:20.659Z,19.71
2023-06-19T23:33:47.015Z,19.83
2023-06-19T23:36:13.387Z,19.92
2023-06-19T23:38:39.726Z,19.90
2023-06-19T23:41:06.075Z,19.91
2023-06-19T23:43:32.418Z,19.88
2023-06-19T23:45:58.814Z,19.85
2023-06-19T23:48:25.284Z,19.80
2023-06-19T23:50:51.643Z,19.79
2023-06-19T23:53:17.999Z,19.77
2023-06-19T23:55:44.365Z,19.85
2023-06-19T23:58:10.713Z,19.85
